createdAt,value
2018-08-18T00:00:34.771Z,15.23
2018-08-18T00:03:04.803Z,15.70
2018-08-18T00:05:34.668Z,15.63
2018-08-18T00:08:04.786Z,15.43
2018-08-18T00:10:34.427Z,15.23
2018-08-18T00:13:04.371Z,14.90
2018-08-18T00:15:33.969Z,15.33
2018-08-18T00:18:03.716Z,14.97
2018-08-18T00:20:33.715Z,14.77
2018-08-18T00:23:03.321Z,15.30
2018-08-18T00:25:33.477Z,14.60
2018-08-18T00:28:21.767Z,15.73
2018-08-18T00:30:51.294Z,16.40
2018-08-18T00:33:21.774Z,17.63
2018-08-18T00:35:51.594Z,16.20
2018-08-18T00:38:22.551Z,15.07
2018-08-18T00:40:52.219Z,15.20
2018-08-18T00:43:22.130Z,15.53
2018-08-18T00:45:51.779Z,15.60
2018-08-18T00:48:21.963Z,15.10
2018-08-18T00:50:51.650Z,16.97
2018-08-18T00:53:21.276Z,17.03
2018-08-18T00:55:50.996Z,17.17
2018-08-18T00:58:25.716Z,17.47
2018-08-18T01:01:00.533Z,18.40
2018-08-18T01:03:30.715Z,18.97
2018-08-18T01:06:18.230Z,19.30
2018-08-18T01:08:48.762Z,18.57
2018-08-18T01:11:18.466Z,18.70
2018-08-18T01:13:48.398Z,18.77
2018-08-18T01:16:18.288Z,18.83
2018-08-18T01:18:48.747Z,18.80
2018-08-18T01:21:18.738Z,20.00
2018-08-18T01:23:48.527Z,20.90
2018-08-18T01:26:18.512Z,20.50
2018-08-18T01:28:49.272Z,19.87
2018-08-18T01:31:24.578Z,21.33
2018-08-18T01:33:54.218Z,19.90
2018-08-18T01:36:23.839Z,21.33
2018-08-18T01:38:53.731Z,22.07
2018-08-18T01:41:25.687Z,21.87
2018-08-18T01:44:17.148Z,21.60
2018-08-18T01:46:49.426Z,22.50
2018-08-18T01:49:38.690Z,23.67
2018-08-18T01:52:26.332Z,21.63
2018-08-18T01:54:55.912Z,21.40
2018-08-18T01:57:25.615Z,23.80
2018-08-18T01:59:55.306Z,22.37
2018-08-18T02:02:26.422Z,21.50
2018-08-18T02:05:03.503Z,22.93
2018-08-18T02:07:34.268Z,21.80
2018-08-18T02:10:05.043Z,23.60
2018-08-18T02:12:34.624Z,24.10
2018-08-18T02:15:04.564Z,25.43
2018-08-18T02:17:37.255Z,23.90
2018-08-18T02:20:09.327Z,24.70
2018-08-18T02:22:38.992Z,25.10
2018-08-18T02:25:08.583Z,24.90
2018-08-18T02:27:38.959Z,24.17
2018-08-18T02:30:20.317Z,24.33
2018-08-18T02:32:50.226Z,23.50
2018-08-18T02:35:20.191Z,26.17
2018-08-18T02:37:49.838Z,26.00
2018-08-18T02:40:19.648Z,24.70
2018-08-18T02:42:49.396Z,25.33
2018-08-18T02:45:19.556Z,25.40
2018-08-18T02:47:53.666Z,28.70
2018-08-18T02:50:23.295Z,24.17
2018-08-18T02:52:52.907Z,25.37
2018-08-18T02:55:22.605Z,24.60
2018-08-18T02:57:52.290Z,26.20
2018-08-18T03:00:26.957Z,25.80
2018-08-18T03:02:56.754Z,26.97
2018-08-18T03:05:26.389Z,24.30
2018-08-18T03:07:56.291Z,27.10
2018-08-18T03:10:27.163Z,26.50
2018-08-18T03:12:59.227Z,25.03
2018-08-18T03:16:02.832Z,25.43
2018-08-18T03:18:54.020Z,25.07
2018-08-18T03:21:31.658Z,24.10
2018-08-18T03:24:22.524Z,24.00
2018-08-18T03:26:54.422Z,23.77
2018-08-18T03:29:25.110Z,24.03
2018-08-18T03:31:55.122Z,23.50
2018-08-18T03:34:25.002Z,24.87
2018-08-18T03:36:56.754Z,24.10
2018-08-18T03:39:31.363Z,24.80
2018-08-18T03:42:02.179Z,24.13
2018-08-18T03:44:31.771Z,25.70
2018-08-18T03:47:01.564Z,23.83
2018-08-18T03:49:31.232Z,25.30
2018-08-18T03:52:00.884Z,26.30
2018-08-18T03:54:30.580Z,25.80
2018-08-18T03:57:00.296Z,26.17
2018-08-18T03:59:30.096Z,25.07
2018-08-18T04:02:01.590Z,26.67
2018-08-18T04:04:34.575Z,27.70
2018-08-18T04:07:06.374Z,27.80
2018-08-18T04:09:37.077Z,27.80
2018-08-18T04:12:08.288Z,27.97
2018-08-18T04:14:43.179Z,25.47
2018-08-18T04:17:29.407Z,27.43
2018-08-18T04:19:59.115Z,28.27
2018-08-18T04:22:29.100Z,25.30
2018-08-18T04:24:59.167Z,27.13
2018-08-18T04:27:47.102Z,26.63
2018-08-18T04:30:20.873Z,29.03
2018-08-18T04:32:54.735Z,30.97
2018-08-18T04:35:25.435Z,31.60
2018-08-18T04:37:55.861Z,30.60
2018-08-18T04:40:26.103Z,29.47
2018-08-18T04:42:59.554Z,30.30
2018-08-18T04:45:29.196Z,29.33
2018-08-18T04:47:58.870Z,29.43
2018-08-18T04:50:29.046Z,31.83
2018-08-18T04:52:58.795Z,31.10
2018-08-18T04:55:28.418Z,29.23
2018-08-18T04:57:58.448Z,28.53
2018-08-18T05:00:28.941Z,29.00
2018-08-18T05:03:00.263Z,27.03
2018-08-18T05:05:31.215Z,29.90
2018-08-18T05:08:02.138Z,31.77
2018-08-18T05:10:32.291Z,29.70
2018-08-18T05:13:01.963Z,30.37
2018-08-18T05:15:31.615Z,30.77
2018-08-18T05:18:01.224Z,30.33
2018-08-18T05:20:30.934Z,30.10
2018-08-18T05:23:19.275Z,32.60
2018-08-18T05:25:50.538Z,29.20
2018-08-18T05:28:20.482Z,28.93
2018-08-18T05:30:53.295Z,30.13
2018-08-18T05:33:22.931Z,32.30
2018-08-18T05:35:52.748Z,29.50
2018-08-18T05:38:23.087Z,29.40
2018-08-18T05:40:52.739Z,29.60
2018-08-18T05:43:22.546Z,29.13
2018-08-18T05:45:52.315Z,30.80
2018-08-18T05:48:21.987Z,29.77
2018-08-18T05:50:51.607Z,27.83
2018-08-18T05:53:26.368Z,31.70
2018-08-18T05:55:56.659Z,26.90
2018-08-18T05:58:26.272Z,28.80
2018-08-18T06:01:01.173Z,28.40
2018-08-18T06:03:31.023Z,27.37
2018-08-18T06:06:00.630Z,27.20
2018-08-18T06:08:30.314Z,26.77
2018-08-18T06:11:00.028Z,26.53
2018-08-18T06:13:29.731Z,26.63
2018-08-18T06:16:10.804Z,27.37
2018-08-18T06:18:41.514Z,26.07
2018-08-18T06:21:11.287Z,28.87
2018-08-18T06:23:40.858Z,28.00
2018-08-18T06:26:10.474Z,26.67
2018-08-18T06:28:40.267Z,27.20
2018-08-18T06:31:09.970Z,30.30
2018-08-18T06:33:39.692Z,29.83
2018-08-18T06:36:09.330Z,27.80
2018-08-18T06:38:39.533Z,28.63
2018-08-18T06:41:09.471Z,30.93
2018-08-18T06:43:39.330Z,27.13
2018-08-18T06:46:08.981Z,29.47
2018-08-18T06:48:39.418Z,29.33
2018-08-18T06:51:09.326Z,30.03
2018-08-18T06:53:45.439Z,28.77
2018-08-18T06:56:15.170Z,31.30
2018-08-18T06:58:45.098Z,30.00
2018-08-18T07:01:14.916Z,28.27
2018-08-18T07:03:46.275Z,28.83
2018-08-18T07:06:17.351Z,29.67
2018-08-18T07:08:53.088Z,29.33
2018-08-18T07:11:23.033Z,30.10
2018-08-18T07:13:52.943Z,28.97
2018-08-18T07:16:22.571Z,29.57
2018-08-18T07:18:52.159Z,30.73
2018-08-18T07:21:21.817Z,31.33
2018-08-18T07:23:51.417Z,31.53
2018-08-18T07:26:21.015Z,28.80
2018-08-18T07:28:50.727Z,27.30
2018-08-18T07:31:20.446Z,28.77
2018-08-18T07:33:50.132Z,29.63
2018-08-18T07:36:19.862Z,30.13
2018-08-18T07:38:49.432Z,29.30
2018-08-18T07:41:20.091Z,29.83
2018-08-18T07:43:49.792Z,30.60
2018-08-18T07:46:19.600Z,29.93
2018-08-18T07:48:49.292Z,30.40
2018-08-18T07:51:19.026Z,30.03
2018-08-18T07:53:48.724Z,29.60
2018-08-18T07:56:18.324Z,29.50
2018-08-18T07:58:47.952Z,29.60
2018-08-18T08:01:17.638Z,28.30
2018-08-18T08:03:47.575Z,29.03
2018-08-18T08:06:17.150Z,28.43
2018-08-18T08:08:48.608Z,28.80
2018-08-18T08:11:18.527Z,27.37
2018-08-18T08:13:48.250Z,27.80
2018-08-18T08:16:18.633Z,25.00
2018-08-18T08:18:48.196Z,25.60
2018-08-18T08:21:18.008Z,24.13
2018-08-18T08:23:47.798Z,26.50
2018-08-18T08:26:17.424Z,25.07
2018-08-18T08:28:47.122Z,24.67
2018-08-18T08:31:16.832Z,24.10
2018-08-18T08:33:46.715Z,23.53
2018-08-18T08:36:17.566Z,22.80
2018-08-18T08:38:59.183Z,25.13
2018-08-18T08:41:31.089Z,25.40
2018-08-18T08:44:01.303Z,24.20
2018-08-18T08:46:31.065Z,22.07
2018-08-18T08:49:01.888Z,17.20
2018-08-18T08:51:31.998Z,18.90
2018-08-18T08:54:01.639Z,17.70
2018-08-18T08:56:40.346Z,17.40
2018-08-18T08:59:10.146Z,18.80
2018-08-18T09:01:39.867Z,18.10
2018-08-18T09:04:09.575Z,19.37
2018-08-18T09:06:43.407Z,21.87
2018-08-18T09:09:13.295Z,19.80
2018-08-18T09:11:43.172Z,17.90
2018-08-18T09:14:12.878Z,17.13
2018-08-18T09:16:42.634Z,14.90
2018-08-18T09:19:12.429Z,16.97
2018-08-18T09:21:47.298Z,17.03
2018-08-18T09:24:17.566Z,15.70
2018-08-18T09:26:54.071Z,18.40
2018-08-18T09:29:24.504Z,18.20
2018-08-18T09:31:54.734Z,17.77
2018-08-18T09:34:24.291Z,18.43
2018-08-18T09:36:54.539Z,20.30
2018-08-18T09:39:33.923Z,17.97
2018-08-18T09:42:09.933Z,18.43
2018-08-18T09:44:44.846Z,17.97
2018-08-18T09:47:15.580Z,17.10
2018-08-18T09:49:45.512Z,17.20
2018-08-18T09:52:17.340Z,17.40
2018-08-18T09:54:47.018Z,16.47
2018-08-18T09:57:16.804Z,16.20
2018-08-18T09:59:46.484Z,15.70
2018-08-18T10:02:16.535Z,16.13
2018-08-18T10:04:46.195Z,16.97
2018-08-18T10:07:16.041Z,18.00
2018-08-18T10:09:45.732Z,16.53
2018-08-18T10:12:15.668Z,16.93
2018-08-18T10:14:45.655Z,18.70
2018-08-18T10:17:15.360Z,15.40
2018-08-18T10:19:45.285Z,16.57
2018-08-18T10:22:14.995Z,15.57
2018-08-18T10:24:44.527Z,17.13
2018-08-18T10:27:14.213Z,13.17
2018-08-18T10:29:44.151Z,15.27
2018-08-18T10:32:13.754Z,14.20
2018-08-18T10:34:43.563Z,14.50
2018-08-18T10:37:14.407Z,14.60
2018-08-18T10:39:44.085Z,14.77
2018-08-18T10:42:15.799Z,14.37
2018-08-18T10:44:51.578Z,14.93
2018-08-18T10:47:22.779Z,14.67
2018-08-18T10:50:09.740Z,15.07
2018-08-18T10:52:58.396Z,16.07
2018-08-18T10:55:28.023Z,16.30
2018-08-18T10:58:05.440Z,13.50
2018-08-18T11:00:35.669Z,12.53
2018-08-18T11:03:07.080Z,13.10
2018-08-18T11:05:36.773Z,13.73
2018-08-18T11:08:07.965Z,13.57
2018-08-18T11:10:40.706Z,13.00
2018-08-18T11:13:10.690Z,13.70
2018-08-18T11:15:40.848Z,12.70
2018-08-18T11:18:10.556Z,13.30
2018-08-18T11:20:40.268Z,13.60
2018-08-18T11:23:13.710Z,14.43
2018-08-18T11:25:53.059Z,13.20
2018-08-18T11:28:23.506Z,12.80
2018-08-18T11:30:54.530Z,13.37
2018-08-18T11:33:39.482Z,12.97
2018-08-18T11:36:10.306Z,12.20
2018-08-18T11:38:40.279Z,12.40
2018-08-18T11:41:09.976Z,13.00
2018-08-18T11:43:47.271Z,12.30
2018-08-18T11:46:17.143Z,13.67
2018-08-18T11:48:46.761Z,13.37
2018-08-18T11:51:16.612Z,12.10
2018-08-18T11:53:59.536Z,13.40
2018-08-18T11:56:29.362Z,13.30
2018-08-18T11:59:20.587Z,12.30
2018-08-18T12:01:52.035Z,12.47
2018-08-18T12:04:23.582Z,11.43
2018-08-18T12:06:57.719Z,12.73
2018-08-18T12:09:28.135Z,13.83
2018-08-18T12:11:58.070Z,12.00
2018-08-18T12:14:27.966Z,11.70
2018-08-18T12:16:57.595Z,11.40
2018-08-18T12:19:27.241Z,13.43
2018-08-18T12:21:56.940Z,11.43
2018-08-18T12:24:26.862Z,13.13
2018-08-18T12:27:11.068Z,11.67
2018-08-18T12:29:40.752Z,11.67
2018-08-18T12:32:16.130Z,12.53
2018-08-18T12:34:46.027Z,14.17
2018-08-18T12:37:26.559Z,11.70
2018-08-18T12:39:58.343Z,12.27
2018-08-18T12:42:29.042Z,11.40
2018-08-18T12:44:58.747Z,11.40
2018-08-18T12:47:28.439Z,12.10
2018-08-18T12:49:58.194Z,11.83
2018-08-18T12:52:28.991Z,11.40
2018-08-18T12:54:58.599Z,11.77
2018-08-18T12:57:40.822Z,12.17
2018-08-18T13:00:10.528Z,11.90
2018-08-18T13:02:47.387Z,12.30
2018-08-18T13:05:17.843Z,12.27
2018-08-18T13:07:47.991Z,10.90
2018-08-18T13:10:27.322Z,11.00
2018-08-18T13:12:57.920Z,11.83
2018-08-18T13:15:28.019Z,11.23
2018-08-18T13:17:57.627Z,11.30
2018-08-18T13:20:27.763Z,11.10
2018-08-18T13:22:57.519Z,10.70
2018-08-18T13:25:27.480Z,11.50
2018-08-18T13:27:57.646Z,10.27
2018-08-18T13:30:28.800Z,11.73
2018-08-18T13:32:59.716Z,9.63
2018-08-18T13:35:29.388Z,9.90
2018-08-18T13:37:59.047Z,10.00
2018-08-18T13:40:29.573Z,10.50
2018-08-18T13:42:59.607Z,9.20
2018-08-18T13:45:41.764Z,9.43
2018-08-18T13:48:13.061Z,8.80
2018-08-18T13:50:42.842Z,9.77
2018-08-18T13:53:12.491Z,9.13
2018-08-18T13:55:42.631Z,8.63
2018-08-18T13:58:13.402Z,8.40
2018-08-18T14:00:42.903Z,9.43
2018-08-18T14:03:25.678Z,9.27
2018-08-18T14:05:56.122Z,8.10
2018-08-18T14:08:26.504Z,8.60
2018-08-18T14:10:56.276Z,8.50
2018-08-18T14:13:26.258Z,8.40
2018-08-18T14:15:58.979Z,8.50
2018-08-18T14:18:28.743Z,7.80
2018-08-18T14:21:07.766Z,8.07
2018-08-18T14:23:37.463Z,8.00
2018-08-18T14:26:07.289Z,8.73
2018-08-18T14:28:37.099Z,8.37
2018-08-18T14:31:07.219Z,8.07
2018-08-18T14:33:36.811Z,8.23
2018-08-18T14:36:14.022Z,7.83
2018-08-18T14:38:45.413Z,8.57
2018-08-18T14:41:51.028Z,8.47
2018-08-18T14:44:20.708Z,8.00
2018-08-18T14:46:50.468Z,7.83
2018-08-18T14:49:20.331Z,8.57
2018-08-18T14:51:50.132Z,7.87
2018-08-18T14:54:24.091Z,8.53
2018-08-18T14:56:53.927Z,8.73
2018-08-18T14:59:27.652Z,7.87
2018-08-18T15:01:57.372Z,8.40
2018-08-18T15:04:27.175Z,7.50
2018-08-18T15:06:56.973Z,7.47
2018-08-18T15:09:35.487Z,8.93
2018-08-18T15:12:05.224Z,7.83
2018-08-18T15:14:34.846Z,9.57
2018-08-18T15:17:04.587Z,8.70
2018-08-18T15:19:34.183Z,7.90
2018-08-18T15:22:13.338Z,7.40
2018-08-18T15:24:42.876Z,8.10
2018-08-18T15:27:12.590Z,7.77
2018-08-18T15:29:42.414Z,8.40
2018-08-18T15:32:12.091Z,8.10
2018-08-18T15:34:41.812Z,8.07
2018-08-18T15:37:11.868Z,12.50
2018-08-18T15:39:41.521Z,7.87
2018-08-18T15:42:11.145Z,7.90
2018-08-18T15:44:57.249Z,8.40
2018-08-18T15:47:29.171Z,7.97
2018-08-18T15:49:59.440Z,8.07
2018-08-18T15:52:33.796Z,8.00
2018-08-18T15:55:04.644Z,8.40
2018-08-18T15:57:34.575Z,8.50
2018-08-18T16:00:04.395Z,8.43
2018-08-18T16:02:34.033Z,7.70
2018-08-18T16:05:03.612Z,7.90
2018-08-18T16:07:33.423Z,8.57
2018-08-18T16:10:03.018Z,8.57
2018-08-18T16:12:32.656Z,8.27
2018-08-18T16:15:02.357Z,7.83
2018-08-18T16:17:32.055Z,8.47
2018-08-18T16:20:02.016Z,8.23
2018-08-18T16:22:31.859Z,7.70
2018-08-18T16:25:01.699Z,8.40
2018-08-18T16:27:31.352Z,8.83
2018-08-18T16:30:01.110Z,9.00
2018-08-18T16:32:30.815Z,8.80
2018-08-18T16:35:05.663Z,8.37
2018-08-18T16:37:37.749Z,8.27
2018-08-18T16:40:07.338Z,8.60
2018-08-18T16:42:37.066Z,8.30
2018-08-18T16:45:07.376Z,10.93
2018-08-18T16:47:41.351Z,8.57
2018-08-18T16:50:11.170Z,9.00
2018-08-18T16:52:40.880Z,8.73
2018-08-18T16:55:10.455Z,12.90
2018-08-18T16:57:39.981Z,8.30
2018-08-18T17:00:09.616Z,8.30
2018-08-18T17:02:39.715Z,8.23
2018-08-18T17:05:10.111Z,8.70
2018-08-18T17:07:43.455Z,11.30
2018-08-18T17:10:13.496Z,9.07
2018-08-18T17:12:43.055Z,9.43
2018-08-18T17:15:12.688Z,8.20
2018-08-18T17:17:42.423Z,7.43
2018-08-18T17:20:12.087Z,8.87
2018-08-18T17:22:42.318Z,8.37
2018-08-18T17:25:11.957Z,8.60
2018-08-18T17:27:41.514Z,8.70
2018-08-18T17:30:11.167Z,8.83
2018-08-18T17:32:40.947Z,8.43
2018-08-18T17:35:10.642Z,8.60
2018-08-18T17:37:40.582Z,8.03
2018-08-18T17:40:10.318Z,7.87
2018-08-18T17:42:40.306Z,7.63
2018-08-18T17:45:10.207Z,7.97
2018-08-18T17:47:44.182Z,8.20
2018-08-18T17:50:13.847Z,8.30
2018-08-18T17:52:43.583Z,9.43
2018-08-18T17:55:19.608Z,7.80
2018-08-18T17:57:49.314Z,8.10
2018-08-18T18:00:20.755Z,8.80
2018-08-18T18:02:57.909Z,8.73
2018-08-18T18:05:34.353Z,8.00
2018-08-18T18:08:06.559Z,8.27
2018-08-18T18:10:38.134Z,8.13
2018-08-18T18:13:16.440Z,8.20
2018-08-18T18:15:47.682Z,8.13
2018-08-18T18:18:19.831Z,7.83
2018-08-18T18:20:50.830Z,8.40
2018-08-18T18:23:21.247Z,8.03
2018-08-18T18:25:52.734Z,7.57
2018-08-18T18:28:22.370Z,8.97
2018-08-18T18:30:53.493Z,8.30
2018-08-18T18:33:23.316Z,8.20
2018-08-18T18:35:52.972Z,7.53
2018-08-18T18:38:23.057Z,8.33
2018-08-18T18:40:52.768Z,8.77
2018-08-18T18:43:22.372Z,7.97
2018-08-18T18:45:53.377Z,8.90
2018-08-18T18:48:23.300Z,8.70
2018-08-18T18:50:53.097Z,8.20
2018-08-18T18:53:22.718Z,9.03
2018-08-18T18:55:54.332Z,9.23
2018-08-18T18:58:24.585Z,8.77
2018-08-18T19:01:00.606Z,9.17
2018-08-18T19:03:30.863Z,12.00
2018-08-18T19:06:00.548Z,10.63
2018-08-18T19:08:30.516Z,10.10
2018-08-18T19:11:02.800Z,9.03
2018-08-18T19:13:32.501Z,10.33
2018-08-18T19:16:02.177Z,9.00
2018-08-18T19:18:32.100Z,9.13
2018-08-18T19:21:01.968Z,8.30
2018-08-18T19:23:33.564Z,9.20
2018-08-18T19:26:03.350Z,9.53
2018-08-18T19:28:33.234Z,8.90
2018-08-18T19:31:03.043Z,9.83
2018-08-18T19:33:32.598Z,20.20
2018-08-18T19:36:02.128Z,12.80
2018-08-18T19:38:31.690Z,10.87
2018-08-18T19:41:01.220Z,10.20
2018-08-18T19:43:30.959Z,10.73
2018-08-18T19:46:00.487Z,12.13
2018-08-18T19:48:30.031Z,10.93
2018-08-18T19:51:03.790Z,13.33
2018-08-18T19:53:35.702Z,11.90
2018-08-18T19:56:09.912Z,10.70
2018-08-18T19:58:39.493Z,13.80
2018-08-18T20:01:09.055Z,10.07
2018-08-18T20:03:38.740Z,10.93
2018-08-18T20:06:26.711Z,11.43
2018-08-18T20:08:56.319Z,11.33
2018-08-18T20:11:25.835Z,10.30
2018-08-18T20:13:55.405Z,10.47
2018-08-18T20:16:25.043Z,11.57
2018-08-18T20:18:54.616Z,11.57
2018-08-18T20:21:24.516Z,11.43
2018-08-18T20:23:54.051Z,10.30
2018-08-18T20:26:23.587Z,11.00
2018-08-18T20:28:53.158Z,13.23
2018-08-18T20:31:22.675Z,11.93
2018-08-18T20:33:52.204Z,11.87
2018-08-18T20:36:21.776Z,11.57
2018-08-18T20:38:51.314Z,11.70
2018-08-18T20:41:20.899Z,11.00
2018-08-18T20:43:50.664Z,10.40
2018-08-18T20:46:20.238Z,13.60
2018-08-18T20:48:49.854Z,11.53
2018-08-18T20:51:23.569Z,12.37
2018-08-18T20:53:53.080Z,14.43
2018-08-18T20:56:22.646Z,13.40
2018-08-18T20:58:52.204Z,13.43
2018-08-18T21:01:21.800Z,14.00
2018-08-18T21:03:51.682Z,12.57
2018-08-18T21:06:21.475Z,12.80
2018-08-18T21:08:51.040Z,13.20
2018-08-18T21:11:20.618Z,12.23
2018-08-18T21:13:51.478Z,13.30
2018-08-18T21:16:21.954Z,12.50
2018-08-18T21:18:51.761Z,14.60
2018-08-18T21:21:32.551Z,12.60
2018-08-18T21:24:02.354Z,12.53
2018-08-18T21:26:32.074Z,12.70
2018-08-18T21:29:01.854Z,12.97
2018-08-18T21:31:33.166Z,12.03
2018-08-18T21:34:04.631Z,13.87
2018-08-18T21:36:35.087Z,12.07
2018-08-18T21:39:08.027Z,12.00
2018-08-18T21:41:39.583Z,11.40
2018-08-18T21:44:11.724Z,11.40
2018-08-18T21:46:41.949Z,13.27
2018-08-18T21:49:12.653Z,11.63
2018-08-18T21:51:42.315Z,12.67
2018-08-18T21:54:12.126Z,12.70
2018-08-18T21:56:42.938Z,12.77
2018-08-18T21:59:14.068Z,12.43
2018-08-18T22:01:44.055Z,13.00
2018-08-18T22:04:13.721Z,11.97
2018-08-18T22:06:43.287Z,12.23
2018-08-18T22:09:30.994Z,11.90
2018-08-18T22:12:00.547Z,12.43
2018-08-18T22:14:30.103Z,13.30
2018-08-18T22:16:59.631Z,13.30
2018-08-18T22:19:29.928Z,12.03
2018-08-18T22:21:59.835Z,12.70
2018-08-18T22:24:29.407Z,12.83
2018-08-18T22:26:58.971Z,12.80
2018-08-18T22:29:28.534Z,13.77
2018-08-18T22:31:58.136Z,16.40
2018-08-18T22:34:27.896Z,15.17
2018-08-18T22:37:03.655Z,13.40
2018-08-18T22:39:33.203Z,13.73
2018-08-18T22:42:03.296Z,15.37
2018-08-18T22:44:32.852Z,14.63
2018-08-18T22:47:04.375Z,14.00
2018-08-18T22:49:33.959Z,14.17
2018-08-18T22:52:04.163Z,14.37
2018-08-18T22:54:33.746Z,14.30
2018-08-18T22:57:04.634Z,14.33
2018-08-18T22:59:34.283Z,15.73
2018-08-18T23:02:04.275Z,15.03
2018-08-18T23:04:35.864Z,15.00
2018-08-18T23:07:06.619Z,13.87
2018-08-18T23:09:36.592Z,14.57
2018-08-18T23:12:08.042Z,16.80
2018-08-18T23:14:39.319Z,13.50
2018-08-18T23:17:11.166Z,13.57
2018-08-18T23:19:40.746Z,13.77
2018-08-18T23:22:27.171Z,15.10
2018-08-18T23:24:56.778Z,14.03
2018-08-18T23:27:27.671Z,13.20
2018-08-18T23:29:57.326Z,14.60
2018-08-18T23:32:27.142Z,14.30
2018-08-18T23:34:58.122Z,14.33
2018-08-18T23:37:27.886Z,14.30
2018-08-18T23:39:57.827Z,13.07
2018-08-18T23:42:27.835Z,14.30
2018-08-18T23:44:57.624Z,13.60
2018-08-18T23:47:27.248Z,13.57
2018-08-18T23:49:56.917Z,14.07
2018-08-18T23:52:26.855Z,13.97
2018-08-18T23:54:56.530Z,14.37
2018-08-18T23:57:26.224Z,14.37
2018-08-18T23:59:55.847Z,14.70
